• Join FlightAware (Why Join?)
  • Login
  • US Flag 
05:36AM EDT


 

Airport Tracker/Info


-or-


 

Live Flight TrackerFlight Track Log ✈ GJS9601 ✈ 16-Apr-2012 ✈ KORD - KSTL

Flight Track Log - Related Links

Times and Time Zones

All times are in EDT time to prevent confusion due to time zone crossing. See the GJS9601 flight status page for this flight to view local times or setup timezone preferences in your user account.

Time Position Orientation Groundspeed Altitude Reporting Facility
EDT Latitude Longitude Course Direction KTS MPH feet Rate Location/Type
08:14AM 41.9500 -87.9000 217° Southwest 127 146 2,000  Level Chicago TRACON
08:15AM 41.9167 -87.9333 201° Southwest 198 228 5,000 2,580 Climbing Chicago TRACON
08:17AM 41.8192 -87.9847 184° South 223 257 9,400 2,640 Climbing Chicago Center
08:18AM 41.7525 -87.9917 186° South 223 257 12,600 2,340 Climbing Chicago Center
08:19AM 41.6756 -88.0017 185° South 255 293 14,100 2,280 Climbing Chicago Center
08:20AM 41.5861 -88.0117 184° South 297 342 17,200 2,940 Climbing Chicago Center
08:21AM 41.5006 -88.0192 192° South 310 357 20,000 2,340 Climbing Chicago Center
08:22AM 41.4092 -88.0458 200° South 316 364 21,900 660 Climbing Chicago Center
08:23AM 41.3117 -88.0922 202° Southwest 328 377 21,400 -780 Descending Chicago Center
08:24AM 41.2247 -88.1381 200° South 341 392 20,400 -720 Descending Chicago Center
08:25AM 41.1397 -88.1781 202° Southwest 341 392 20,000 -240 Descending Chicago Center
08:26AM 41.0586 -88.2208 200° South 335 386 20,000  Level Chicago Center
08:27AM 40.9758 -88.2608 201° Southwest 330 380 20,000  Level Chicago Center
08:28AM 40.8906 -88.3036 200° South 330 380 20,000  Level Chicago Center
08:29AM 40.8036 -88.3461 200° South 330 380 20,000  Level Chicago Center
08:30AM 40.7206 -88.3856 199° South 330 380 20,000  Level Chicago Center
08:31AM 40.6333 -88.4253 203° Southwest 330 380 20,000  Level Chicago Center
08:32AM 40.5503 -88.4728 199° South 330 380 20,000  Level Chicago Center
08:33AM 40.4714 -88.5094 200° South 335 386 20,000  Level Chicago Center
08:35AM 40.2875 -88.5956 200° South 339 390 20,000  Level Kansas City Center
08:36AM 40.2000 -88.6383 200° South 334 384 20,000  Level Kansas City Center
08:37AM 40.1144 -88.6781 200° South 334 384 20,000  Level Kansas City Center
08:38AM 40.0247 -88.7206 200° South 339 390 20,000  Level Kansas City Center
08:39AM 39.9372 -88.7628 200° South 344 396 20,000  Level Kansas City Center
08:40AM 39.8475 -88.8053 199° South 344 396 20,000  Level Kansas City Center
08:41AM 39.7536 -88.8478 201° Southwest 344 396 20,000  Level Kansas City Center
08:42AM 39.6661 -88.8925 199° South 344 396 20,000  Level Kansas City Center
08:43AM 39.5783 -88.9317 201° Southwest 344 396 20,000  Level Kansas City Center
08:44AM 39.4867 -88.9767 199° South 344 396 20,000  Level Kansas City Center
08:45AM 39.4008 -89.0153 200° South 339 390 20,000  Level Kansas City Center
08:46AM 39.3131 -89.0569 200° South 339 390 20,000 -120 Level Kansas City Center
08:47AM 39.2253 -89.0983 201° Southwest 344 396 19,800 -720 Descending Kansas City Center
08:48AM 39.1478 -89.1364 202° Southwest 339 390 18,600 -1,680 Descending Kansas City Center
08:49AM 39.0811 -89.1717 250° West 299 344 16,300 -1,980 Descending FAA TRACON SMA TRACON (SMA)
08:50AM 39.0625 -89.2364 255° West 317 365 15,100 -2,040 Descending FAA TRACON SMA TRACON (SMA)
08:50AM 39.0436 -89.3258 252° West 340 391 13,500 -2,100 Descending FAA TRACON SMA TRACON (SMA)
08:51AM 39.0250 -89.3983 253° West 349 402 12,300 -1,920 Descending FAA TRACON SMA TRACON (SMA)
08:52AM 39.0083 -89.4700 259° West 339 390 11,100 -1,020 Descending FAA TRACON SMA TRACON (SMA)
08:52AM 38.9969 -89.5447 270° West 304 350 11,000 -600 Descending FAA TRACON SMA TRACON (SMA)
08:53AM 38.9972 -89.6144 267° West 284 327 10,300 -840 Descending FAA TRACON SMA TRACON (SMA)
08:54AM 38.9944 -89.6731 248° West 266 306 9,900 -900 Descending FAA TRACON SMA TRACON (SMA)
08:54AM 38.9772 -89.7289 245° Southwest 241 277 9,100 -1,380 Descending FAA TRACON SMA TRACON (SMA)
08:55AM 38.9578 -89.7814 243° Southwest 235 270 8,100 -1,620 Descending FAA TRACON SMA TRACON (SMA)
08:56AM 38.9381 -89.8317 243° Southwest 227 261 7,000 -1,500 Descending FAA TRACON SMA TRACON (SMA)
08:56AM 38.9203 -89.8761 240° Southwest 226 260 6,100 -1,440 Descending FAA TRACON SMA TRACON (SMA)
08:57AM 38.8986 -89.9253 245° Southwest 230 265 5,100 -840 Descending FAA TRACON SMA TRACON (SMA)
08:58AM 38.8817 -89.9711 245° Southwest 231 266 5,000 -720 Descending FAA TRACON SMA TRACON (SMA)
08:58AM 38.8628 -90.0228 243° Southwest 231 266 4,200 -1,140 Descending FAA TRACON SMA TRACON (SMA)
08:59AM 38.8425 -90.0728 242° Southwest 229 264 3,500 -540 Descending FAA TRACON SMA TRACON (SMA)
09:00AM 38.8250 -90.1158 242° Southwest 222 255 3,500 -420 Level FAA TRACON SMA TRACON (SMA)
09:00AM 38.8069 -90.1603 244° Southwest 199 229 3,000 -900 Descending FAA TRACON SMA TRACON (SMA)
09:01AM 38.7914 -90.2008 242° Southwest 181 208 2,300 -840 Descending FAA TRACON SMA TRACON (SMA)
09:02AM 38.7722 -90.2472 243° Southwest 127 146 1,600 -720 Descending FAA TRACON SMA TRACON (SMA)
09:03AM 38.7633 -90.2692 243° Southwest 112 129 1,100 -720 Descending FAA TRACON SMA TRACON (SMA)
09:03AM 38.7536 -90.2939 243° Southwest 113 130 700 -600 Descending FAA TRACON SMA TRACON (SMA)